createdAt,value
2022-09-06T00:01:33.262Z,17.00
2022-09-06T00:03:59.996Z,17.00
2022-09-06T00:06:26.706Z,16.90
2022-09-06T00:08:53.378Z,16.90
2022-09-06T00:11:20.421Z,16.80
2022-09-06T00:13:47.765Z,16.80
2022-09-06T00:16:27.298Z,16.80
2022-09-06T00:18:57.019Z,16.70
2022-09-06T00:21:26.511Z,16.70
2022-09-06T00:23:54.051Z,16.70
2022-09-06T00:26:22.185Z,16.70
2022-09-06T00:28:49.467Z,16.70
2022-09-06T00:31:21.920Z,16.60
2022-09-06T00:33:49.303Z,16.60
2022-09-06T00:36:16.654Z,16.60
2022-09-06T00:38:44.023Z,16.60
2022-09-06T00:41:12.927Z,16.50
2022-09-06T00:43:39.941Z,16.40
2022-09-06T00:46:09.856Z,16.40
2022-09-06T00:48:38.806Z,16.40
2022-09-06T00:51:10.265Z,16.40
2022-09-06T00:53:37.190Z,16.30
2022-09-06T00:56:04.143Z,16.30
2022-09-06T00:58:30.881Z,16.30
2022-09-06T01:00:57.603Z,16.20
2022-09-06T01:03:25.147Z,16.20
2022-09-06T01:06:11.499Z,16.20
2022-09-06T01:08:46.657Z,16.20
2022-09-06T01:11:47.831Z,16.20
2022-09-06T01:14:39.897Z,16.10
2022-09-06T01:17:28.174Z,16.00
2022-09-06T01:20:23.699Z,16.00
2022-09-06T01:23:21.383Z,16.00
2022-09-06T01:26:06.597Z,16.00
2022-09-06T01:28:46.328Z,16.00
2022-09-06T01:31:38.959Z,16.00
2022-09-06T01:34:08.591Z,16.00
2022-09-06T01:37:08.970Z,16.00
2022-09-06T01:39:37.605Z,15.90
2022-09-06T01:42:18.705Z,15.90
2022-09-06T01:44:55.011Z,15.90
2022-09-06T01:47:27.825Z,15.90
2022-09-06T01:50:12.585Z,15.90
2022-09-06T01:52:39.230Z,15.90
2022-09-06T01:55:30.879Z,15.80
2022-09-06T01:58:14.904Z,15.80
2022-09-06T02:01:17.408Z,15.80
2022-09-06T02:04:08.426Z,15.80
2022-09-06T02:06:43.322Z,15.90
2022-09-06T02:09:19.454Z,16.10
2022-09-06T02:14:23.575Z,16.10
2022-09-06T02:16:50.961Z,16.20
2022-09-06T02:20:13.267Z,16.30
2022-09-06T02:22:43.705Z,16.30
2022-09-06T02:25:16.677Z,16.20
2022-09-06T02:27:43.395Z,16.20
2022-09-06T02:30:10.849Z,16.20
2022-09-06T02:32:58.104Z,16.20
2022-09-06T02:35:24.922Z,16.20
2022-09-06T02:37:51.908Z,16.20
2022-09-06T02:40:18.919Z,16.20
2022-09-06T02:42:45.639Z,16.20
2022-09-06T02:45:12.350Z,16.20
2022-09-06T02:47:39.069Z,16.10
2022-09-06T02:50:08.139Z,16.00
2022-09-06T02:52:34.804Z,16.00
2022-09-06T02:55:01.480Z,16.00
2022-09-06T02:57:28.181Z,16.00
2022-09-06T02:59:54.832Z,16.00
2022-09-06T03:02:21.584Z,15.90
2022-09-06T03:04:48.274Z,15.90
2022-09-06T03:07:14.958Z,15.90
2022-09-06T03:09:41.709Z,15.80
2022-09-06T03:12:08.513Z,15.70
2022-09-06T03:14:36.124Z,15.70
2022-09-06T03:17:03.959Z,15.60
2022-09-06T03:19:30.727Z,15.60
2022-09-06T03:21:57.419Z,15.60
2022-09-06T03:24:24.163Z,15.50
2022-09-06T03:26:51.812Z,15.50
2022-09-06T03:29:19.618Z,15.50
2022-09-06T03:31:46.311Z,15.50
2022-09-06T03:34:12.990Z,15.60
2022-09-06T03:36:39.702Z,15.50
2022-09-06T03:39:07.113Z,15.50
2022-09-06T03:41:33.852Z,15.50
2022-09-06T03:44:00.577Z,15.50
2022-09-06T03:46:30.406Z,15.40
2022-09-06T03:48:57.854Z,15.50
2022-09-06T03:51:24.622Z,15.40
2022-09-06T03:53:51.337Z,15.50
2022-09-06T03:56:17.985Z,15.50
2022-09-06T03:58:44.676Z,15.50
2022-09-06T04:01:12.929Z,15.50
2022-09-06T04:03:40.289Z,15.50
2022-09-06T04:06:07.574Z,15.50
2022-09-06T04:08:35.488Z,15.50
2022-09-06T04:11:02.408Z,15.40
2022-09-06T04:13:29.647Z,15.40
2022-09-06T04:15:56.391Z,15.40
2022-09-06T04:18:23.759Z,15.40
2022-09-06T04:20:52.706Z,15.30
2022-09-06T04:23:20.583Z,15.30
2022-09-06T04:25:48.810Z,15.30
2022-09-06T04:28:18.194Z,15.20
2022-09-06T04:30:46.069Z,15.30
2022-09-06T04:33:12.776Z,15.30
2022-09-06T04:35:39.466Z,15.30
2022-09-06T04:38:06.209Z,15.20
2022-09-06T04:40:32.913Z,15.20
2022-09-06T04:42:59.600Z,15.20
2022-09-06T04:45:26.307Z,15.20
2022-09-06T04:47:53.087Z,15.30
2022-09-06T04:50:19.876Z,15.20
2022-09-06T04:52:46.619Z,15.20
2022-09-06T04:55:13.439Z,15.20
2022-09-06T04:57:44.549Z,15.30
2022-09-06T05:00:13.817Z,15.30
2022-09-06T05:02:40.569Z,15.30
2022-09-06T05:05:07.612Z,15.50
2022-09-06T05:07:34.366Z,15.40
2022-09-06T05:10:01.217Z,15.40
2022-09-06T05:12:29.048Z,15.40
2022-09-06T05:14:55.818Z,15.50
2022-09-06T05:17:22.553Z,15.50
2022-09-06T05:19:49.286Z,15.50
2022-09-06T05:22:15.964Z,15.50
2022-09-06T05:24:42.732Z,15.60
2022-09-06T05:27:09.440Z,15.60
2022-09-06T05:29:36.257Z,15.70
2022-09-06T05:32:03.128Z,15.70
2022-09-06T05:34:29.883Z,15.80
2022-09-06T05:36:56.613Z,15.90
2022-09-06T05:39:23.971Z,15.80
2022-09-06T05:41:50.714Z,15.90
2022-09-06T05:44:17.546Z,15.90
2022-09-06T05:46:45.353Z,15.90
2022-09-06T05:49:13.430Z,15.90
2022-09-06T05:51:41.211Z,15.80
2022-09-06T05:54:07.923Z,15.90
2022-09-06T05:56:34.750Z,15.90
2022-09-06T05:59:01.613Z,16.00
2022-09-06T06:01:30.387Z,16.10
2022-09-06T06:04:05.177Z,16.40
2022-09-06T06:06:33.280Z,16.30
2022-09-06T06:09:00.415Z,16.20
2022-09-06T06:11:28.132Z,16.30
2022-09-06T06:13:54.947Z,16.30
2022-09-06T06:16:23.194Z,16.30
2022-09-06T06:18:52.468Z,16.50
2022-09-06T06:21:21.900Z,16.70
2022-09-06T06:23:51.706Z,16.90
2022-09-06T06:26:19.323Z,17.10
2022-09-06T12:30:07.523Z,17.20
2022-09-06T12:32:54.608Z,27.60
2022-09-06T12:38:24.143Z,27.80
2022-09-06T12:40:56.342Z,28.00
2022-09-06T12:43:23.050Z,27.90
2022-09-06T12:45:52.273Z,27.90
2022-09-06T12:48:29.309Z,28.00
2022-09-06T12:51:08.178Z,27.90
2022-09-06T12:53:35.397Z,28.30
2022-09-06T12:56:12.778Z,28.70
2022-09-06T12:58:40.163Z,28.70
2022-09-06T13:01:16.219Z,29.00
2022-09-06T13:03:56.840Z,29.20
2022-09-06T13:06:27.202Z,29.10
2022-09-06T13:08:57.079Z,29.00
2022-09-06T13:11:34.200Z,28.80
2022-09-06T13:14:02.402Z,28.70
2022-09-06T13:16:42.225Z,28.70
2022-09-06T13:19:29.809Z,28.90
2022-09-06T13:21:58.319Z,29.10
2022-09-06T13:24:28.263Z,29.20
2022-09-06T13:26:54.971Z,28.80
2022-09-06T13:29:33.060Z,28.30
2022-09-06T13:32:02.121Z,28.50
2022-09-06T13:34:31.619Z,28.70
2022-09-06T13:37:08.168Z,28.60
2022-09-06T13:39:37.307Z,28.40
2022-09-06T13:42:27.862Z,28.30
2022-09-06T13:44:58.772Z,28.10
2022-09-06T13:47:29.317Z,28.00
2022-09-06T13:49:56.014Z,28.10
2022-09-06T13:52:23.100Z,28.30
2022-09-06T13:54:49.906Z,28.60
2022-09-06T13:57:20.012Z,29.20
2022-09-06T13:59:50.183Z,29.90
2022-09-06T14:02:19.423Z,29.80
2022-09-06T14:04:46.143Z,29.70
2022-09-06T14:07:12.927Z,29.60
2022-09-06T14:12:06.990Z,29.60
2022-09-06T14:14:34.393Z,29.90
2022-09-06T14:17:01.207Z,29.90
2022-09-06T14:19:28.902Z,30.60
2022-09-06T14:21:55.702Z,31.80
2022-09-06T14:24:22.518Z,32.50
2022-09-06T14:26:49.352Z,32.10
2022-09-06T14:29:16.155Z,31.70
2022-09-06T14:31:42.822Z,31.40
2022-09-06T14:34:09.502Z,31.20
2022-09-06T14:36:36.202Z,30.50
2022-09-06T14:39:03.751Z,30.70
2022-09-06T14:41:30.906Z,31.10
2022-09-06T14:43:58.672Z,31.70
2022-09-06T14:46:27.149Z,32.30
2022-09-06T14:49:10.134Z,32.50
2022-09-06T14:51:38.555Z,31.30
2022-09-06T14:54:09.148Z,30.40
2022-09-06T14:56:36.525Z,29.70
2022-09-06T14:59:03.813Z,29.40
2022-09-06T15:01:37.808Z,29.10
2022-09-06T15:04:07.544Z,28.70
2022-09-06T15:06:36.797Z,28.80
2022-09-06T15:09:05.320Z,28.80
2022-09-06T15:11:34.304Z,28.90
2022-09-06T15:18:59.543Z,28.90
2022-09-06T15:21:26.647Z,29.40
2022-09-06T15:23:53.577Z,28.90
2022-09-06T15:26:21.319Z,28.70
2022-09-06T15:28:49.254Z,28.50
2022-09-06T15:31:16.644Z,28.50
2022-09-06T15:33:43.484Z,28.40
2022-09-06T15:36:11.376Z,28.30
2022-09-06T15:38:45.291Z,28.20
2022-09-06T15:41:18.205Z,28.10
2022-09-06T15:43:47.821Z,27.90
2022-09-06T15:46:16.916Z,27.70
2022-09-06T15:48:46.511Z,27.50
2022-09-06T15:51:16.463Z,27.50
2022-09-06T15:53:44.287Z,27.50
2022-09-06T15:56:17.067Z,27.40
2022-09-06T15:58:48.261Z,27.30
2022-09-06T16:01:19.034Z,27.30
2022-09-06T16:03:47.168Z,27.30
2022-09-06T16:09:01.075Z,27.60
2022-09-06T16:11:36.286Z,28.20
2022-09-06T16:14:11.378Z,29.10
2022-09-06T16:16:40.515Z,29.80
2022-09-06T16:19:08.255Z,30.20
2022-09-06T16:21:37.794Z,30.20
2022-09-06T16:24:06.783Z,30.10
2022-09-06T16:26:36.405Z,29.60
2022-09-06T16:29:04.792Z,28.90
2022-09-06T16:31:37.770Z,28.20
2022-09-06T16:34:07.769Z,27.80
2022-09-06T16:36:34.843Z,27.50
2022-09-06T16:39:01.793Z,27.10
2022-09-06T16:41:37.476Z,26.80
2022-09-06T16:44:04.237Z,26.60
2022-09-06T16:46:31.140Z,26.40
2022-09-06T16:49:01.415Z,26.30
2022-09-06T16:51:29.158Z,26.00
2022-09-06T16:53:56.834Z,25.80
2022-09-06T16:56:26.025Z,25.60
2022-09-06T16:58:58.788Z,25.40
2022-09-06T17:01:27.605Z,25.40
2022-09-06T17:03:54.537Z,25.50
2022-09-06T17:06:23.088Z,25.60
2022-09-06T17:08:51.013Z,25.60
2022-09-06T17:11:20.557Z,25.60
2022-09-06T17:13:50.729Z,25.60
2022-09-06T17:16:37.601Z,25.60
2022-09-06T17:19:05.678Z,25.50
2022-09-06T17:21:33.006Z,25.50
2022-09-06T17:24:05.348Z,25.50
2022-09-06T17:26:34.220Z,25.40
2022-09-06T17:29:00.996Z,25.30
2022-09-06T17:31:28.200Z,25.10
2022-09-06T17:33:55.150Z,25.00
2022-09-06T17:36:24.414Z,24.90
2022-09-06T17:38:53.708Z,24.70
2022-09-06T17:41:27.372Z,24.60
2022-09-06T17:43:54.978Z,24.40
2022-09-06T17:46:28.440Z,24.20
2022-09-06T17:48:56.024Z,24.10
2022-09-06T17:51:23.440Z,23.90
2022-09-06T17:53:50.576Z,23.70
2022-09-06T17:56:18.559Z,23.70
2022-09-06T17:58:54.103Z,23.60
2022-09-06T18:01:22.248Z,23.50
2022-09-06T18:03:50.105Z,23.40
2022-09-06T18:06:21.968Z,23.30
2022-09-06T18:08:50.610Z,23.30
2022-09-06T18:11:24.440Z,23.20
2022-09-06T18:13:55.561Z,23.20
2022-09-06T18:16:22.385Z,23.10
2022-09-06T18:18:54.510Z,23.10
2022-09-06T18:21:22.049Z,23.00
2022-09-06T18:23:48.785Z,23.00
2022-09-06T18:26:16.794Z,22.90
2022-09-06T18:28:44.077Z,22.90
2022-09-06T18:31:16.239Z,22.90
2022-09-06T18:33:43.508Z,22.80
2022-09-06T18:36:12.754Z,22.80
2022-09-06T18:38:40.423Z,22.70
2022-09-06T18:41:09.163Z,22.70
2022-09-06T18:43:40.273Z,22.60
2022-09-06T18:46:09.747Z,22.50
2022-09-06T18:48:37.889Z,22.40
2022-09-06T18:51:12.882Z,22.40
2022-09-06T18:53:44.755Z,22.40
2022-09-06T18:56:13.549Z,22.30
2022-09-06T18:58:40.678Z,22.30
2022-09-06T19:01:10.029Z,22.20
2022-09-06T19:03:37.883Z,22.20
2022-09-06T19:06:08.968Z,22.20
2022-09-06T19:08:35.819Z,22.10
2022-09-06T19:11:05.432Z,22.10
2022-09-06T19:13:33.895Z,22.00
2022-09-06T19:16:01.325Z,22.00
2022-09-06T19:18:29.115Z,22.00
2022-09-06T19:21:08.548Z,21.90
2022-09-06T19:23:38.503Z,21.90
2022-09-06T19:26:14.222Z,21.90
2022-09-06T19:28:42.400Z,21.80
2022-09-06T19:31:16.547Z,21.70
2022-09-06T19:33:46.342Z,21.70
2022-09-06T19:36:14.266Z,21.70
2022-09-06T19:39:01.861Z,21.70
2022-09-06T19:41:31.196Z,21.70
2022-09-06T19:44:00.587Z,21.70
2022-09-06T19:46:29.701Z,21.70
2022-09-06T19:48:58.462Z,21.70
2022-09-06T19:51:26.065Z,21.60
2022-09-06T19:53:57.587Z,21.60
2022-09-06T19:56:27.248Z,21.60
2022-09-06T19:58:56.282Z,21.50
2022-09-06T20:01:26.405Z,21.50
2022-09-06T20:03:54.500Z,21.50
2022-09-06T20:06:25.251Z,21.40
2022-09-06T20:08:54.107Z,21.40
2022-09-06T20:11:22.751Z,21.30
2022-09-06T20:13:49.533Z,21.30
2022-09-06T20:16:20.257Z,21.30
2022-09-06T20:18:48.523Z,21.20
2022-09-06T20:21:17.731Z,21.20
2022-09-06T20:23:52.480Z,21.20
2022-09-06T20:26:20.739Z,21.20
2022-09-06T20:28:47.690Z,21.10
2022-09-06T20:31:16.529Z,21.10
2022-09-06T20:33:49.421Z,21.00
2022-09-06T20:36:17.626Z,21.00
2022-09-06T20:38:45.759Z,21.00
2022-09-06T20:41:18.569Z,21.00
2022-09-06T20:43:49.652Z,20.90
2022-09-06T20:46:18.295Z,20.90
2022-09-06T20:48:46.472Z,20.80
2022-09-06T20:51:19.450Z,20.80
2022-09-06T20:53:55.641Z,20.70
2022-09-06T20:56:25.309Z,20.70
2022-09-06T20:58:59.490Z,20.70
2022-09-06T21:01:28.343Z,20.70
2022-09-06T21:03:57.830Z,20.70
2022-09-06T21:06:26.572Z,20.60
2022-09-06T21:08:53.552Z,20.60
2022-09-06T21:11:22.390Z,20.50
2022-09-06T21:13:55.790Z,20.50
2022-09-06T21:16:25.349Z,20.50
2022-09-06T21:18:58.377Z,20.40
2022-09-06T21:21:26.842Z,20.30
2022-09-06T21:23:54.290Z,20.30
2022-09-06T21:26:22.378Z,20.30
2022-09-06T21:28:50.057Z,20.30
2022-09-06T21:31:25.312Z,20.20
2022-09-06T21:33:54.554Z,20.20
2022-09-06T21:36:25.587Z,20.10
2022-09-06T21:38:57.140Z,20.10
2022-09-06T21:41:24.712Z,20.00
2022-09-06T21:43:56.124Z,19.90
2022-09-06T21:46:29.000Z,19.90
2022-09-06T21:49:00.011Z,19.80
2022-09-06T21:51:27.439Z,19.70
2022-09-06T21:53:54.920Z,19.70
2022-09-06T21:56:23.799Z,19.60
2022-09-06T21:58:52.640Z,19.60
2022-09-06T22:01:19.576Z,19.60
2022-09-06T22:03:46.403Z,19.60
2022-09-06T22:06:18.918Z,19.50
2022-09-06T22:08:46.322Z,19.50
2022-09-06T22:11:16.067Z,19.50
2022-09-06T22:13:44.190Z,19.40
2022-09-06T22:16:13.337Z,19.30
2022-09-06T22:18:40.484Z,19.30
2022-09-06T22:21:09.916Z,19.20
2022-09-06T22:23:37.502Z,19.20
2022-09-06T22:26:05.285Z,19.10
2022-09-06T22:28:32.669Z,19.00
2022-09-06T22:30:59.697Z,19.00
2022-09-06T22:33:26.919Z,19.00
2022-09-06T22:35:55.929Z,19.00
2022-09-06T22:38:23.151Z,18.90
2022-09-06T22:40:49.891Z,18.90
2022-09-06T22:43:17.029Z,18.90
2022-09-06T22:45:49.837Z,18.80
2022-09-06T22:48:18.516Z,18.80
2022-09-06T22:50:45.739Z,18.70
2022-09-06T22:53:12.599Z,18.70
2022-09-06T22:55:39.294Z,18.60
2022-09-06T22:58:06.595Z,18.60
2022-09-06T23:00:36.107Z,18.60
2022-09-06T23:03:03.124Z,18.70
2022-09-06T23:05:31.364Z,18.70
2022-09-06T23:08:00.188Z,18.70
2022-09-06T23:10:27.532Z,18.70
2022-09-06T23:12:54.768Z,18.70
2022-09-06T23:15:21.792Z,18.70
2022-09-06T23:17:48.815Z,18.60
2022-09-06T23:20:15.678Z,18.60
2022-09-06T23:22:42.654Z,18.60
2022-09-06T23:25:10.322Z,18.60
2022-09-06T23:27:37.223Z,18.50
2022-09-06T23:30:05.581Z,18.50
2022-09-06T23:32:33.167Z,18.40
2022-09-06T23:34:59.998Z,18.30
2022-09-06T23:37:26.749Z,18.40
2022-09-06T23:39:53.626Z,18.30
2022-09-06T23:42:21.126Z,18.20
2022-09-06T23:44:48.220Z,18.10
2022-09-06T23:47:15.380Z,18.10
2022-09-06T23:49:42.113Z,18.10
2022-09-06T23:52:08.837Z,18.10
2022-09-06T23:54:36.238Z,18.10
2022-09-06T23:57:02.950Z,18.00
2022-09-06T23:59:29.901Z,18.00
